Tuesday, April 24, 2018, 4:38 AM EDT
Back to Local

KLGA, New York La Guardia Airport

Location: Astoria, NY, United States Lat: 40.783
Local Time: 4:38 AM EDT ( 8:38 GMT) Lon: -73.883
Time Zone: US/Eastern Elev: 22 ft

Show me the last for .
Show Decoded

2018-04-24 03:51 METAR KLGA 240751Z COR 13004KT 10SM FEW250 09/06 A3040 RMK AO2 SLP294 T00890056
                 =
2018-04-24 02:51 METAR KLGA 240651Z 14003KT 10SM FEW250 09/06 A3040 RMK AO2 SLP293 T00940056 =
2018-04-24 01:51 METAR KLGA 240551Z 17004KT 10SM SCT250 10/06 A3041 RMK AO2 SLP298 T01000056
                 10122 20100 56008 =
2018-04-24 00:51 METAR KLGA 240451Z 17004KT 10SM BKN250 10/06 A3042 RMK AO2 SLP301 T01000056
                 401830072 =
2018-04-23 23:51 METAR KLGA 240351Z 17005KT 10SM BKN250 10/05 A3043 RMK AO2 SLP303 T01000050 =
2018-04-23 22:51 METAR KLGA 240251Z 18006KT 10SM BKN250 11/04 A3044 RMK AO2 SLP306 T01060044
                 50002 =
2018-04-23 21:51 METAR KLGA 240151Z VRB05KT 10SM BKN250 11/03 A3044 RMK AO2 SLP308 T01110033 =
2018-04-23 20:51 METAR KLGA 240051Z 17005KT 10SM BKN250 12/02 A3044 RMK AO2 SLP306 T01170017 =
2018-04-23 19:51 METAR KLGA 232351Z 18006KT 10SM BKN250 12/01 A3043 RMK AO2 SLP304 T01220006
                 10183 20122 53000 =
2018-04-23 18:51 METAR KLGA 232251Z 14010KT 10SM FEW250 14/02 A3042 RMK AO2 SLP300 T01390017 =
2018-04-23 17:51 METAR KLGA 232151Z 12010KT 10SM FEW250 14/01 A3042 RMK AO2 SLP302 T01440006 =
2018-04-23 16:51 METAR KLGA 232051Z 17012KT 10SM FEW250 17/M02 A3043 RMK AO2 SLP304 T01671022
                 56007 =
2018-04-23 15:51 METAR KLGA 231951Z 16008KT 10SM FEW250 17/M02 A3043 RMK AO2 WSHFT 1915 SLP304
                 T01721017 =
2018-04-23 15:35 METAR KLGA 231935Z 16011KT 10SM FEW250 17/M01 A3043 RMK AO2 WSHFT 1915 T01721006
                 =
2018-04-23 14:51 METAR KLGA 231851Z 05009KT 10SM FEW250 17/M01 A3044 RMK AO2 SLP307 T01671011 =
2018-04-23 13:51 METAR KLGA 231751Z 05011KT 10SM FEW250 16/M02 A3045 RMK AO2 SLP311 T01561017
                 10161 20089 58014 =
2018-04-23 12:51 METAR KLGA 231651Z 05011KT 10SM FEW250 14/M01 A3047 RMK AO2 SLP316 T01441006 =
2018-04-23 11:51 METAR KLGA 231551Z 05010KT 10SM FEW250 14/M02 A3048 RMK AO2 SLP322 T01391022 =
2018-04-23 10:51 METAR KLGA 231451Z 05011KT 10SM FEW250 13/M03 A3049 RMK AO2 SLP325 T01331028
                 51007 =
2018-04-23 09:51 METAR KLGA 231351Z 04007KT 10SM FEW250 12/M02 A3049 RMK AO2 SLP325 T01171022 =
2018-04-23 08:51 METAR KLGA 231251Z 04012KT 10SM FEW250 11/M02 A3048 RMK AO2 SLP319 T01061022 =
2018-04-23 07:51 METAR KLGA 231151Z 05007KT 10SM CLR 09/M01 A3047 RMK AO2 SLP318 T00941011 10100
                 20072 53017 =
2018-04-23 06:51 METAR KLGA 231051Z 05007KT 10SM FEW250 08/03 A3045 RMK AO2 SLP312 T00780028 =
2018-04-23 05:51 METAR KLGA 230951Z 08003KT 10SM CLR 07/04 A3044 RMK AO2 SLP306 T00720039 =
2018-04-23 04:51 METAR KLGA 230851Z 05004KT 10SM CLR 08/03 A3042 RMK AO2 SLP301 T00780028 53010 =

Support USWX by starting your Amazon purchase here.